Aeroporto :
LOGIN :

Iscrizione | Disclaimer

   EN    FR    IT 

 










Sommario :    VFR   VFR Marginale   IFR   IFR Intensivo   IFR Molto Intensivo
Visibilità : 
Base nubi : 
>= 8 km
>= 3000ft
5 / 8 km
1000 / 3000 ft
1500m / 5 km
500 / 1000 ft
800 / 1500m
200 / 500 ft
< 800m
< 200 ft
Simboli :   Temporali  Nebbia  Neve Forte  Precipitazioni Forti  Vento > 20 kt
SIGMETs :   Varie  Temporali  Ghiacco  Turbolenza  Onda orograficha  Ceneri Vulcaniche






- Altitudine del aeroporto : 1585 ft
- Codice IATA : SIR


LSGS - Sion

ULTIMO METAR :
  • 281620Z 26015KT 9999 FEW100 19/13 Q1018

METARs OBSOLETI :
  • 281550Z 26017KT 9999 FEW100 19/13 Q1018
  • 281520Z 26013KT 9999 FEW100 20/13 Q1017
  • 281450Z 26015KT 9999 FEW100 21/13 Q1018
  • 281420Z 25014KT 9999 FEW100 21/13 Q1018
  • 281350Z 25012KT 9999 FEW100 21/13 Q1018

TAF TAF LSGS
Valido dal 28 a 15 ore il 29 a 00 ore UTC


281425Z 2815/2824 24012KT 9999 FEW100
BECMG 2816/2819 VRB02KT



MetMap, La meteo Aeronautica in un colpo d'occhio ! - Copyright ORBIFLY Dicembre 2007 - Disclaimer

ORBIFLY MET'MAP TEAM :

Programmazione e sviluppo : Alexandra Zaïnal
Concezione : Baudouin d'Aumeries
Aiuto per la programmazione : Marc-Olivier Méhu
Supporto tecnico e logistico : Manuel Goepfert
Aiuto per la traduzione : Arnaldo La Scala

Contatto : metmap@orbifly.com




FONTI E CREDITI :

   NOAA